Latest Weather Observations for Kanagulk

IDV60801

Issued at 3:22 pm EST Thursday 28 May 2020 (issued every 10 minutes, with the page automatically refreshed every 10 minutes)

About weather observations | Map of weather stations | Latest weather observations for VIC | Other Formats
Station Details ID: 079097 Name: KANAGULK Lat: -37.12 Lon: 141.80 Height: 188.8 m
Data from the previous 72 hours. | See also: Recent months at Kanagulk
Date/Time
EST
Temp
°C
App
Temp
°C
Dew
Point
°C
Rel
Hum
%
Delta-T
°C
Wind Press
QNH
hPa
Press
MSL
hPa
Rain since
9am
mm
Dir  Spd
km/h
Gust
km/h
Spd
kts
Gust
kts
28/03:00pm 13.9 14.0 13.9 100 0.0 NW 6 13 3 7 1021.6 1021.7 0.0
28/02:30pm 14.5 13.5 14.5 100 0.0 NW 13 20 7 11 1021.6 1021.7 0.0
28/02:00pm 14.3 13.6 14.3 100 0.0 NW 11 22 6 12 1021.8 1021.9 0.0
28/01:30pm 15.0 14.2 15.0 100 0.0 NW 13 20 7 11 1022.0 1022.1 0.0
28/01:00pm 13.1 11.6 13.1 100 0.0 NW 13 24 7 13 1022.2 1022.3 0.0
28/12:30pm 12.4 10.7 12.4 100 0.0 NW 13 24 7 13 1022.4 1022.5 0.0
28/12:00pm 12.2 10.8 12.2 100 0.0 WNW 11 15 6 8 1022.5 1022.6 0.0
28/11:30am 12.4 11.1 12.4 100 0.0 WNW 11 17 6 9 1022.7 1022.8 0.0
28/11:00am 11.9 10.8 11.9 100 0.0 WNW 9 15 5 8 1022.9 1023.0 0.0
28/10:30am 12.4 11.8 12.4 100 0.0 NW 7 11 4 6 1022.7 1022.8 0.0
28/10:00am 11.0 8.9 11.0 100 0.0 NW 13 19 7 10 1022.6 1022.7 0.0
28/09:30am 11.6 10.8 11.6 100 0.0 NNW 7 15 4 8 1022.4 1022.5 0.0
28/09:00am 11.1 9.8 11.1 100 0.0 NNW 9 13 5 7 1022.1 1022.2 0.2
28/08:30am 10.8 9.7 10.8 100 0.0 NNW 7 13 4 7 1021.9 1022.0 0.2
28/08:00am 10.4 9.4 10.4 100 0.0 N 6 13 3 7 1021.5 1021.6 0.2
28/07:30am 10.1 9.4 10.1 100 0.0 N 4 7 2 4 1021.2 1021.3 0.2
28/07:00am 10.5 10.7 10.5 100 0.0 CALM 0 6 0 3 1020.9 1021.0 0.2
28/06:30am 10.5 10.7 10.5 100 0.0 CALM 0 0 0 0 1020.6 1020.7 0.2
28/06:00am 10.3 10.4 10.3 100 0.0 CALM 0 0 0 0 1020.5 1020.6 0.2
28/05:30am 10.7 10.2 10.7 100 0.0 WNW 4 7 2 4 1020.4 1020.5 0.2
28/05:00am 10.9 10.8 10.9 100 0.0 NW 2 9 1 5 1020.3 1020.4 0.2
28/04:30am 10.8 10.3 10.8 100 0.0 WNW 4 9 2 5 1020.3 1020.4 0.2
28/04:00am 10.8 10.3 10.8 100 0.0 WNW 4 7 2 4 1020.2 1020.3 0.2
28/03:30am 10.8 9.9 10.8 100 0.0 W 6 9 3 5 1020.0 1020.1 0.2
28/03:00am 11.0 10.0 11.0 100 0.0 WNW 7 13 4 7 1020.0 1020.1 0.2
28/02:30am 10.9 10.1 10.9 100 0.0 WNW 6 11 3 6 1019.8 1019.9 0.2
28/02:00am 11.1 10.3 11.1 100 0.0 NW 6 13 3 7 1019.8 1019.9 0.2
28/01:30am 11.1 9.8 11.1 100 0.0 NW 9 13 5 7 1019.8 1019.9 0.2
28/01:00am 11.2 10.4 11.2 100 0.0 WNW 6 11 3 6 1019.8 1019.9 0.2
28/12:30am 11.4 10.7 11.4 100 0.0 WNW 6 11 3 6 1019.7 1019.7 0.2
28/12:00am 11.4 11.8 11.4 100 0.0 CALM 0 7 0 4 1019.7 1019.7 0.2
 
Date/Time
EST
Temp
°C
App
Temp
°C
Dew
Point
°C
Rel
Hum
%
Delta-T
°C
Wind Press
QNH
hPa
Press
MSL
hPa
Rain since
9am
mm
Dir  Spd
km/h
Gust
km/h
Spd
kts
Gust
kts
27/11:30pm 11.5 11.6 11.5 100 0.0 WNW 2 6 1 3 1019.5 1019.5 0.2
27/11:00pm 11.5 12.0 11.5 100 0.0 CALM 0 6 0 3 1019.5 1019.5 0.2
27/10:30pm 11.5 10.6 11.5 100 0.0 NW 7 13 4 7 1019.6 1019.6 0.2
27/10:00pm 11.6 11.0 11.6 100 0.0 WNW 6 11 3 6 1019.6 1019.6 0.2
27/09:30pm 11.8 10.7 11.8 100 0.0 WNW 9 17 5 9 1019.5 1019.5 0.2
27/09:00pm 11.0 10.2 11.0 100 0.0 NW 6 9 3 5 1019.4 1019.4 0.2
27/08:30pm 11.3 10.4 11.3 100 0.0 NW 7 13 4 7 1019.2 1019.2 0.2
27/08:00pm 11.2 10.4 11.2 100 0.0 NW 6 9 3 5 1019.0 1019.0 0.2
27/07:30pm 11.8 11.2 11.8 100 0.0 NW 6 9 3 5 1018.8 1018.8 0.2
27/07:00pm 12.3 10.9 12.3 100 0.0 NW 11 17 6 9 1018.8 1018.8 0.2
27/06:30pm 13.7 12.1 11.6 87 1.1 WNW 11 20 6 11 1018.3 1018.4 0.0
27/06:00pm 14.2 12.9 10.0 76 2.2 NW 7 11 4 6 1017.9 1018.0 0.0
27/05:30pm 14.3 13.2 9.9 75 2.3 NNW 6 9 3 5 1017.6 1017.7 0.0
27/05:00pm 14.7 14.0 9.9 73 2.5 NW 4 7 2 4 1017.4 1017.5 0.0
27/04:30pm 15.3 13.6 9.9 70 2.8 NNW 9 17 5 9 1017.3 1017.4 0.0
27/04:00pm 15.6 14.2 9.7 68 3.1 NW 7 19 4 10 1017.2 1017.3 0.0
27/03:30pm 15.4 12.0 9.1 66 3.3 NW 17 24 9 13 1017.1 1017.2 0.0
27/03:00pm 16.6 14.1 9.8 64 3.6 NW 13 22 7 12 1017.0 1017.1 0.0
27/02:30pm 16.5 14.3 10.8 69 3.1 NNW 13 24 7 13 1017.1 1017.2 0.0
27/02:00pm 15.7 13.3 10.0 69 3.0 NNW 13 20 7 11 1017.4 1017.5 0.0
27/01:30pm 15.8 13.8 10.1 69 3.0 NNW 11 19 6 10 1017.7 1017.8 0.0
27/01:00pm 15.2 12.8 10.0 71 2.7 N 13 17 7 9 1017.9 1018.0 0.0
27/12:30pm 14.3 12.7 10.1 76 2.2 N 9 17 5 9 1018.3 1018.4 0.0
27/12:00pm 14.1 11.7 10.1 77 2.1 N 13 20 7 11 1018.9 1018.9 0.0
27/11:30am 11.7 8.7 9.3 85 1.2 N 15 20 8 11 1019.3 1019.3 0.0
27/11:00am 10.9 7.4 8.7 86 1.1 NNE 17 22 9 12 1019.6 1019.6 0.0
27/10:30am 11.1 8.0 8.7 85 1.2 NNE 15 20 8 11 1019.6 1019.6 0.0
27/10:00am 10.7 7.9 8.6 87 1.0 N 13 17 7 9 1019.7 1019.7 0.0
27/09:30am 10.2 8.2 8.5 89 0.8 N 9 15 5 8 1019.8 1019.9 0.0
27/09:00am 9.1 6.7 8.5 96 0.3 N 11 17 6 9 1019.9 1020.0 0.2
27/08:30am 8.7 6.3 8.6 99 0.0 N 11 15 6 8 1019.5 1019.5 0.2
27/08:00am 7.8 4.4 7.7 99 0.0 NNE 15 19 8 10 1019.0 1019.0 0.2
27/07:30am 7.5 4.4 7.4 99 0.0 NNE 13 17 7 9 1018.6 1018.7 0.2
27/07:00am 7.0 3.8 6.9 99 0.0 NNE 13 17 7 9 1018.9 1018.9 0.2
27/06:30am 7.3 4.2 7.2 99 0.0 NNE 13 15 7 8 1018.8 1018.8 0.2
27/06:00am 8.4 5.5 8.3 99 0.0 NNE 13 15 7 8 1018.5 1018.6 0.2
27/05:30am 8.5 5.7 8.4 99 0.0 NNE 13 15 7 8 1018.6 1018.7 0.2
27/05:00am 8.9 5.7 8.3 96 0.3 NNE 15 17 8 9 1018.6 1018.7 0.2
27/04:30am 9.0 6.2 8.4 96 0.3 NNE 13 19 7 10 1018.8 1018.8 0.2
27/04:00am 8.7 5.9 8.6 99 0.0 NNE 13 17 7 9 1018.9 1018.9 0.2
27/03:30am 8.7 5.1 8.4 98 0.1 NNE 17 19 9 10 1019.0 1019.0 0.2
27/03:00am 8.9 6.0 8.3 96 0.3 NNE 13 17 7 9 1019.2 1019.2 0.2
27/02:30am 8.6 5.7 8.3 98 0.1 NNE 13 17 7 9 1019.4 1019.4 0.2
27/02:00am 8.2 5.7 8.1 99 0.0 NNE 11 15 6 8 1019.4 1019.4 0.2
27/01:30am 8.6 4.9 8.0 96 0.3 NNE 17 20 9 11 1019.5 1019.5 0.2
27/01:00am 8.5 4.7 7.7 95 0.4 NNE 17 20 9 11 1019.7 1019.7 0.2
27/12:30am 9.3 6.0 7.9 91 0.7 NNE 15 19 8 10 1019.9 1020.0 0.2
27/12:00am 9.5 5.8 8.1 91 0.7 NNE 17 22 9 12 1020.1 1020.2 0.2
 
Date/Time
EST
Temp
°C
App
Temp
°C
Dew
Point
°C
Rel
Hum
%
Delta-T
°C
Wind Press
QNH
hPa
Press
MSL
hPa
Rain since
9am
mm
Dir  Spd
km/h
Gust
km/h
Spd
kts
Gust
kts
26/11:30pm 9.5 6.5 7.9 90 0.8 N 13 17 7 9 1020.3 1020.4 0.2
26/11:00pm 9.9 6.5 7.8 87 1.0 NNE 15 20 8 11 1020.0 1020.1 0.2
26/10:30pm 10.2 6.9 8.0 86 1.1 N 15 20 8 11 1020.1 1020.2 0.2
26/10:00pm 10.7 6.7 8.1 84 1.3 N 19 24 10 13 1019.9 1020.0 0.2
26/09:30pm 11.2 7.2 8.2 82 1.5 N 19 24 10 13 1019.7 1019.7 0.2
26/09:00pm 11.4 7.2 8.3 81 1.5 NNE 20 26 11 14 1019.5 1019.5 0.2
26/08:30pm 11.2 6.7 8.4 83 1.4 NNE 22 28 12 15 1019.3 1019.3 0.2
26/08:00pm 11.4 7.2 8.4 82 1.5 NNE 20 30 11 16 1019.3 1019.3 0.2
26/07:30pm 11.4 6.9 8.4 82 1.5 NNE 22 28 12 15 1019.2 1019.2 0.2
26/07:00pm 10.9 7.4 8.7 86 1.1 NNE 17 22 9 12 1019.0 1019.0 0.2
26/06:30pm 11.2 7.6 8.2 82 1.5 NNE 17 22 9 12 1019.3 1019.3 0.2
26/06:00pm 11.5 7.9 8.5 82 1.5 NNE 17 20 9 11 1019.1 1019.1 0.2
26/05:30pm 12.8 9.4 9.3 79 1.8 NNE 17 22 9 12 1019.3 1019.3 0.2
26/05:00pm 12.6 10.2 10.1 85 1.3 NNE 13 20 7 11 1019.5 1019.5 0.2
26/04:30pm 13.4 10.7 10.4 82 1.6 NNE 15 20 8 11 1019.6 1019.6 0.2
26/04:00pm 14.3 11.1 10.1 76 2.2 NNE 17 22 9 12 1019.7 1019.7 0.2
26/03:30pm 14.7 9.8 10.1 74 2.4 NNE 26 33 14 18 1019.7 1019.7 0.2
26/03:00pm 15.2 11.4 11.2 77 2.2 N 22 33 12 18 1019.9 1020.0 0.2
26/02:30pm 15.0 11.4 10.4 74 2.4 N 20 30 11 16 1020.3 1020.4 0.2
26/02:00pm 14.8 10.7 11.4 80 1.8 NNE 24 35 13 19 1020.6 1020.7 0.2
26/01:30pm 14.3 10.0 10.7 79 1.9 NNE 24 35 13 19 1021.1 1021.2 0.0
26/01:00pm 14.3 10.5 12.3 88 1.1 NNE 24 32 13 17 1021.5 1021.6 0.0
26/12:30pm 13.7 10.3 12.6 93 0.6 NNE 22 32 12 17 1021.9 1022.0 0.0
26/12:00pm 13.1 10.1 12.6 97 0.3 NNE 20 26 11 14 1022.4 1022.5 0.0
26/11:30am 12.5 9.4 12.3 99 0.1 NNE 20 32 11 17 1022.9 1023.0 0.0
26/11:00am 11.4 8.0 11.2 99 0.1 NNE 20 30 11 16 1023.4 1023.5 0.0
26/10:30am 11.1 7.9 11.1 100 0.0 NNE 19 26 10 14 1023.7 1023.8 0.0
26/10:00am 10.1 6.9 10.1 100 0.0 NNE 17 20 9 11 1023.8 1023.9 0.0
26/09:30am 9.1 5.3 9.1 100 0.0 NNE 19 26 10 14 1023.5 1023.6 0.0
26/09:00am 7.9 4.2 7.9 100 0.0 NNE 17 22 9 12 1023.3 1023.4 0.0
26/08:30am 6.6 3.3 6.6 100 0.0 NNE 13 17 7 9 1023.4 1023.5 0.0
26/08:00am 5.8 1.6 5.8 100 0.0 NE 17 20 9 11 1023.3 1023.4 0.0
26/07:30am 5.3 1.4 5.3 100 0.0 NE 15 17 8 9 1023.4 1023.5 0.0
26/07:00am 4.0 0.6 4.0 100 0.0 NE 11 13 6 7 1023.2 1023.3 0.0
26/06:30am 4.2 0.8 4.2 100 0.0 NE 11 13 6 7 1023.2 1023.3 0.0
26/06:00am 3.8 1.3 3.8 100 0.0 ENE 6 9 3 5 1022.9 1023.0 0.0
26/05:30am 4.5 1.6 4.5 100 0.0 NE 9 11 5 6 1023.0 1023.1 0.0
26/05:00am 5.1 1.5 5.1 100 0.0 NNE 13 17 7 9 1023.2 1023.3 0.0
26/04:30am 5.1 1.5 5.1 100 0.0 NNE 13 13 7 7 1023.2 1023.3 0.0
26/04:00am 5.8 2.8 5.8 100 0.0 NNE 11 15 6 8 1023.2 1023.3 0.0
26/03:30am 5.5 3.2 5.5 100 0.0 N 7 9 4 5 1023.7 1023.8 0.0
26/03:00am 5.1 1.5 5.1 100 0.0 NE 13 15 7 8 1022.9 1023.0 0.0
26/02:30am 5.6 2.5 5.6 100 0.0 NE 11 13 6 7 1023.0 1023.1 0.0
26/02:00am 5.3 2.1 5.3 100 0.0 NNE 11 13 6 7 1023.0 1023.1 0.0
26/01:30am 4.7 2.4 4.7 100 0.0 N 6 7 3 4 1023.4 1023.5 0.0
26/01:00am 4.6 2.1 4.6 100 0.0 ENE 7 9 4 5 1022.7 1022.8 0.0
26/12:30am 4.7 1.4 4.7 100 0.0 E 11 15 6 8 1022.4 1022.5 0.0
26/12:00am 4.7 2.8 4.7 100 0.0 E 4 7 2 4 1022.9 1023.0 0.0
 
Date/Time
EST
Temp
°C
App
Temp
°C
Dew
Point
°C
Rel
Hum
%
Delta-T
°C
Wind Press
QNH
hPa
Press
MSL
hPa
Rain since
9am
mm
Dir  Spd
km/h
Gust
km/h
Spd
kts
Gust
kts
25/11:30pm 4.6 2.1 4.6 100 0.0 E 7 11 4 6 1022.8 1022.9 0.0
25/11:00pm 5.2 4.1 5.2 100 0.0 CALM 0 0 0 0 1023.0 1023.1 0.0
25/10:30pm 5.5 3.3 5.5 100 0.0 ESE 6 7 3 4 1023.2 1023.3 0.0
25/10:00pm 5.6 3.5 5.6 100 0.0 SE 6 9 3 5 1023.7 1023.8 0.0
25/09:30pm 5.9 3.6 5.9 100 0.0 ESE 7 9 4 5 1023.8 1023.9 0.0
25/09:00pm 6.7 5.9 6.7 100 0.0 CALM 0 0 0 0 1023.8 1023.9 0.0
25/08:30pm 7.2 5.4 7.2 100 0.0 S 6 7 3 4 1023.8 1023.9 0.0
25/08:00pm 7.8 7.3 7.8 100 0.0 CALM 0 0 0 0 1024.1 1024.2 0.0
25/07:30pm 7.7 7.2 7.7 100 0.0 CALM 0 4 0 2 1024.1 1024.2 0.0
25/07:00pm 8.2 7.8 8.1 99 0.0 CALM 0 0 0 0 1024.0 1024.1 0.0
25/06:30pm 8.1 7.6 8.0 99 0.0 CALM 0 0 0 0 1023.6 1023.7 0.0
25/06:00pm 8.9 8.6 8.8 99 0.0 CALM 0 0 0 0 1023.4 1023.5 0.0
25/05:30pm 10.6 10.4 9.0 90 0.8 CALM 0 4 0 2 1023.3 1023.4 0.0
25/05:00pm 12.4 11.3 9.8 84 1.3 SW 6 11 3 6 1023.4 1023.5 0.0
25/04:30pm 13.3 11.7 10.3 82 1.6 SW 9 15 5 8 1023.5 1023.6 0.0
25/04:00pm 13.6 12.0 10.2 80 1.8 SSW 9 15 5 8 1023.7 1023.8 0.0
25/03:30pm 14.1 12.1 10.3 78 2.0 SSW 11 15 6 8 1023.8 1023.9 0.0

Other formats

Comma delimited format used in spreadsheet applications
http://www.bom.gov.au/fwo/IDV60801/IDV60801.95827.axf

JavaScript Object Notation format (JSON) in row-major order
http://www.bom.gov.au/fwo/IDV60801/IDV60801.95827.json

Data quality

Most of these data are generated automatically and are frequently updated. Quality checks on data are not normally performed. It is possible for incorrect values to appear. Refer to information at About Latest Weather Observations and please check the disclaimer before using these data.